Time;durP1;ratioP1;P1;durP2;ratioP2;P2;SDS_P1;SDS_P2;PMS_P1;PMS_P2;Temp;Humidity;BMP_temperature;BMP_pressure;BME280_temperature;BME280_humidity;BME280_pressure;Samples;Min_cycle;Max_cycle;Signal;HPM_P1;HPM_P2
2022/02/17 05:11:23;;;;;;;5.78;1.40;;;;;;;6.82;81.54;97361.50;1738920;82;22111;-71
2022/02/17 05:13:49;;;;;;;6.35;1.37;;;;;;;6.82;81.60;97406.52;1740826;82;21462;-71
2022/02/17 05:16:15;;;;;;;4.60;1.15;;;;;;;6.85;81.66;97429.92;1740989;82;21065;-71
2022/02/17 05:18:41;;;;;;;2.50;1.00;;;;;;;6.88;81.71;97436.09;1740612;82;21722;-71
2022/02/17 05:21:07;;;;;;;6.37;1.10;;;;;;;6.88;81.75;97418.88;1741075;82;20930;-71
2022/02/17 05:23:33;;;;;;;7.92;1.10;;;;;;;6.89;81.80;97407.27;1740957;82;20923;-71
2022/02/17 05:25:59;;;;;;;4.40;1.05;;;;;;;6.91;81.83;97397.25;1741071;82;21069;-71
2022/02/17 05:28:25;;;;;;;5.90;1.85;;;;;;;6.92;81.85;97369.73;1741052;82;21186;-71
2022/02/17 05:30:51;;;;;;;5.85;1.60;;;;;;;6.91;81.86;97376.88;1741048;82;20911;-71
2022/02/17 05:33:17;;;;;;;6.33;1.27;;;;;;;6.89;81.86;97397.48;1740934;82;21001;-71
2022/02/17 05:35:42;;;;;;;7.28;2.00;;;;;;;6.89;81.89;97436.41;1741183;82;20985;-71
2022/02/17 05:38:09;;;;;;;3.20;1.30;;;;;;;6.89;81.92;97458.92;1741058;82;21459;-71
2022/02/17 05:40:35;;;;;;;4.42;1.30;;;;;;;6.88;81.91;97489.08;1740933;82;21164;-71
2022/02/17 05:43:02;;;;;;;7.05;1.32;;;;;;;6.87;81.91;97485.61;1740953;82;21025;-71
2022/02/17 05:45:28;;;;;;;6.55;1.40;;;;;;;6.89;81.91;97474.30;1741046;82;21045;-71
2022/02/17 05:47:54;;;;;;;6.97;1.55;;;;;;;6.91;81.90;97468.77;1740953;82;21548;-71
2022/02/17 05:50:21;;;;;;;6.80;1.95;;;;;;;6.94;81.91;97454.57;1740988;82;21057;-71
2022/02/17 05:52:48;;;;;;;9.98;1.87;;;;;;;6.96;81.87;97429.20;1741193;82;21147;-71
2022/02/17 05:55:16;;;;;;;5.58;1.37;;;;;;;6.97;81.87;97419.69;1740722;82;21062;-71
2022/02/17 05:57:42;;;;;;;7.30;1.27;;;;;;;6.96;81.88;97423.39;1740924;82;21105;-71
2022/02/17 06:00:10;;;;;;;7.12;1.35;;;;;;;6.95;81.86;97432.87;1739484;82;21062;-71
2022/02/17 06:02:36;;;;;;;5.95;1.12;;;;;;;6.97;81.91;97445.37;1737798;82;21086;-71
2022/02/17 06:05:02;;;;;;;7.75;1.45;;;;;;;6.99;81.90;97442.81;1737732;82;22011;-71
2022/02/17 06:07:28;;;;;;;5.85;1.32;;;;;;;7.03;81.94;97428.61;1737775;82;21014;-71
2022/02/17 06:09:54;;;;;;;3.95;1.20;;;;;;;7.07;81.92;97421.85;1733758;81;20991;-71
2022/02/17 06:12:20;;;;;;;3.75;1.25;;;;;;;7.11;81.93;97438.91;1721648;83;21015;-71
2022/02/17 06:14:46;;;;;;;5.35;1.20;;;;;;;7.19;81.94;97421.39;1721973;83;21059;-71
2022/02/17 06:17:13;;;;;;;4.92;1.35;;;;;;;7.29;81.91;97412.91;1721919;83;21223;-71
2022/02/17 06:19:40;;;;;;;5.25;1.37;;;;;;;7.37;81.92;97430.66;1721949;83;21067;-71
2022/02/17 06:22:06;;;;;;;6.35;1.30;;;;;;;7.42;81.88;97459.95;1722000;83;21083;-71
2022/02/17 06:24:32;;;;;;;9.40;1.47;;;;;;;7.44;81.86;97457.91;1722106;83;21558;-71
2022/02/17 06:26:58;;;;;;;9.13;1.70;;;;;;;7.49;81.87;97456.70;1722017;83;21008;-71
2022/02/17 06:29:26;;;;;;;4.62;2.22;;;;;;;7.54;81.86;97471.95;1721423;83;21126;-71
2022/02/17 06:31:53;;;;;;;6.60;1.82;;;;;;;7.61;81.81;97481.16;1721642;83;21593;-71
2022/02/17 06:34:19;;;;;;;4.90;1.50;;;;;;;7.67;81.78;97472.33;1721822;83;21011;-71
2022/02/17 06:36:48;;;;;;;7.37;2.62;;;;;;;7.72;81.75;97496.33;1722001;83;20999;-71
2022/02/17 06:39:14;;;;;;;13.58;5.28;;;;;;;7.76;81.71;97485.57;1721981;83;21035;-71
2022/02/17 06:41:40;;;;;;;8.03;2.42;;;;;;;7.82;81.66;97499.26;1721993;83;21057;-71
2022/02/17 06:44:06;;;;;;;3.47;1.55;;;;;;;7.85;81.59;97506.77;1721834;83;20952;-71
2022/02/17 06:46:35;;;;;;;6.47;1.72;;;;;;;7.91;81.51;97527.94;1721915;83;21106;-71
2022/02/17 06:49:01;;;;;;;5.83;2.40;;;;;;;8.01;81.41;97531.37;1722187;83;21578;-71
2022/02/17 06:51:27;;;;;;;7.42;2.77;;;;;;;8.08;81.27;97536.08;1711420;83;21038;-71
2022/02/17 06:53:53;;;;;;;4.80;1.55;;;;;;;8.10;81.14;97522.06;1696424;84;21224;-71
2022/02/17 06:56:21;;;;;;;6.50;2.42;;;;;;;8.14;80.96;97509.15;1697081;84;21007;-71
2022/02/17 06:58:47;;;;;;;12.10;3.90;;;;;;;8.20;80.80;97528.17;1696721;84;21063;-71
2022/02/17 07:01:13;;;;;;;6.85;2.20;;;;;;;8.25;80.64;97535.75;1696984;83;21541;-71
2022/02/17 07:03:39;;;;;;;8.38;1.70;;;;;;;8.31;80.46;97534.05;1697039;84;21063;-71
2022/02/17 07:06:06;;;;;;;3.75;1.50;;;;;;;8.34;80.26;97539.72;1697324;84;21114;-71
2022/02/17 07:08:32;;;;;;;11.48;2.42;;;;;;;8.37;80.06;97533.95;1677803;85;21045;-71
2022/02/17 07:10:59;;;;;;;4.25;1.80;;;;;;;8.40;79.86;97538.03;1677648;84;21089;-71
2022/02/17 07:13:27;;;;;;;5.47;1.35;;;;;;;8.40;79.71;97535.38;1677649;85;21017;-71
2022/02/17 07:15:53;;;;;;;7.70;2.62;;;;;;;8.40;79.54;97542.02;1677819;85;21060;-71
2022/02/17 07:18:20;;;;;;;7.80;2.37;;;;;;;8.38;79.41;97544.88;1678023;85;21134;-71
2022/02/17 07:20:48;;;;;;;8.98;3.98;;;;;;;8.37;79.27;97536.61;1677798;85;21022;-71
2022/02/17 07:23:16;;;;;;;9.90;2.17;;;;;;;8.50;79.12;97541.76;1677992;85;21018;-71
2022/02/17 07:25:45;;;;;;;4.60;1.80;;;;;;;8.73;78.95;97550.28;1677687;85;21036;-71
2022/02/17 07:28:12;;;;;;;4.40;1.10;;;;;;;8.92;78.74;97555.83;1677949;85;21095;-71
2022/02/17 07:30:39;;;;;;;5.85;2.42;;;;;;;9.09;78.51;97544.50;1677658;85;21175;-71
2022/02/17 07:33:05;;;;;;;9.65;2.67;;;;;;;9.20;78.20;97557.81;1677664;85;21337;-72
2022/02/17 07:35:31;;;;;;;5.17;1.90;;;;;;;9.25;77.92;97566.44;1677917;85;21021;-71
2022/02/17 07:51:34;;;;;;;7.35;2.22;;;;;;;9.15;74.32;97590.13;1796258;78;27966;-72
2022/02/17 07:54:00;;;;;;;6.00;1.67;;;;;;;9.12;73.57;97582.07;1797696;79;21030;-72
2022/02/17 07:56:26;;;;;;;6.08;1.50;;;;;;;9.03;73.15;97592.25;1797773;79;21313;-72
2022/02/17 07:58:52;;;;;;;7.40;2.02;;;;;;;8.97;72.59;97600.33;1797955;79;20962;-72
2022/02/17 08:01:18;;;;;;;10.28;3.60;;;;;;;8.92;72.15;97591.70;1797744;79;21462;-72
2022/02/17 08:03:45;;;;;;;11.35;2.77;;;;;;;8.94;71.73;97596.77;1789100;79;21763;-72
2022/02/17 08:06:15;;;;;;;7.47;2.35;;;;;;;8.96;71.17;97604.02;1766471;81;20951;-72
2022/02/17 08:08:48;;;;;;;8.60;1.92;;;;;;;8.98;70.51;97597.42;1766342;81;21122;-72
2022/02/17 08:11:10;;;;;;;7.67;2.52;;;;;;;8.95;69.82;97594.41;1766001;81;21046;-72
2022/02/17 08:13:36;;;;;;;9.68;3.00;;;;;;;8.93;69.19;97609.80;1766078;81;20940;-72
2022/02/17 08:16:02;;;;;;;9.63;4.00;;;;;;;8.89;68.59;97590.83;1766530;79;20877;-72
2022/02/17 08:18:28;;;;;;;9.78;4.67;;;;;;;8.83;67.85;97611.66;1777917;79;21478;-72
2022/02/17 08:20:54;;;;;;;12.82;4.35;;;;;;;8.80;67.62;97587.38;1781718;78;21999;-72
2022/02/17 08:23:20;;;;;;;10.90;4.37;;;;;;;8.76;67.47;97596.33;1768626;80;21007;-72
2022/02/17 08:25:46;;;;;;;11.18;3.98;;;;;;;8.81;67.31;97600.97;1766037;81;21032;-73
2022/02/17 08:28:12;;;;;;;11.05;3.77;;;;;;;8.87;67.04;97612.01;1789977;80;20998;-72
2022/02/17 08:30:38;;;;;;;10.88;2.80;;;;;;;8.95;66.80;97609.03;1764458;80;21050;-72
2022/02/17 08:33:04;;;;;;;10.93;2.77;;;;;;;8.95;66.36;97589.09;1759289;80;21142;-72
2022/02/17 08:35:31;;;;;;;7.12;2.72;;;;;;;9.07;66.05;97603.23;1727766;82;21502;-72
2022/02/17 08:37:57;;;;;;;9.43;2.70;;;;;;;9.10;65.76;97619.23;1773060;80;21042;-72
2022/02/17 08:40:24;;;;;;;6.42;2.12;;;;;;;9.24;65.70;97620.14;1751721;80;21030;-73
2022/02/17 08:42:49;;;;;;;15.53;3.15;;;;;;;9.44;65.54;97631.25;1737168;81;20909;-72
2022/02/17 08:45:16;;;;;;;14.18;1.98;;;;;;;9.60;65.50;97631.61;1733298;81;21153;-72
2022/02/17 08:47:42;;;;;;;9.50;2.40;;;;;;;9.57;64.87;97638.73;1728990;81;21085;-73
2022/02/17 08:50:09;;;;;;;9.78;2.55;;;;;;;9.43;64.45;97618.16;1729727;81;21048;-72
2022/02/17 08:52:37;;;;;;;9.15;2.65;;;;;;;9.31;63.83;97588.92;1713510;81;21079;-72
2022/02/17 08:55:04;;;;;;;10.78;2.12;;;;;;;9.26;63.62;97620.70;1721969;81;21043;-72
2022/02/17 08:57:30;;;;;;;11.73;3.25;;;;;;;9.30;63.58;97616.55;1725934;81;21418;-73
2022/02/17 08:59:56;;;;;;;11.88;2.92;;;;;;;9.31;63.58;97628.81;1720052;82;21064;-72
2022/02/17 09:02:22;;;;;;;11.97;3.40;;;;;;;9.39;63.54;97648.41;1714190;82;21017;-72
2022/02/17 09:04:48;;;;;;;8.43;2.00;;;;;;;9.44;63.50;97628.59;1716926;82;21478;-72
2022/02/17 09:07:14;;;;;;;9.45;3.02;;;;;;;9.47;63.49;97637.95;1718606;82;22196;-73
2022/02/17 09:09:40;;;;;;;8.80;3.12;;;;;;;9.46;63.31;97632.36;1710592;82;21865;-72
2022/02/17 09:12:08;;;;;;;9.03;2.58;;;;;;;9.47;63.28;97637.43;1688759;83;21015;-72
2022/02/17 09:14:34;;;;;;;14.93;6.58;;;;;;;9.52;63.20;97621.60;1708864;83;21028;-72
2022/02/17 09:17:00;;;;;;;13.03;4.47;;;;;;;9.52;62.72;97630.91;1679056;84;21076;-72
2022/02/17 09:19:26;;;;;;;10.82;3.15;;;;;;;9.60;62.41;97634.27;1688669;83;21074;-71
2022/02/17 09:21:52;;;;;;;9.05;2.58;;;;;;;9.59;61.67;97631.31;1689241;83;21183;-71
2022/02/17 09:24:18;;;;;;;19.23;7.42;;;;;;;9.62;61.19;97637.50;1690523;83;21083;-72
2022/02/17 09:26:48;;;;;;;9.48;2.72;;;;;;;9.71;60.89;97623.60;1691552;83;21034;-72
2022/02/17 09:29:14;;;;;;;9.45;2.42;;;;;;;9.78;60.21;97625.63;1695480;84;23244;-72
2022/02/17 09:31:40;;;;;;;10.45;2.33;;;;;;;9.86;59.91;97617.81;1694545;83;21651;-72
2022/02/17 09:36:07;;;;;;;10.18;2.33;;;;;;;9.96;58.82;97616.17;1795746;78;22684;-72
2022/02/17 09:38:33;;;;;;;12.35;2.40;;;;;;;9.97;58.53;97632.97;1763943;80;21109;-73
2022/02/17 09:41:03;;;;;;;10.95;2.62;;;;;;;9.97;58.24;97631.63;1750233;81;21127;-72
2022/02/17 09:43:29;;;;;;;6.67;2.87;;;;;;;9.91;57.95;97644.55;1734709;81;27145;-73
2022/02/17 09:45:55;;;;;;;7.80;3.02;;;;;;;9.82;57.92;97648.59;1752377;80;20986;-73
2022/02/17 09:48:21;;;;;;;8.65;2.58;;;;;;;9.71;57.38;97652.09;1734431;81;21585;-73
2022/02/17 09:50:48;;;;;;;8.85;3.00;;;;;;;9.66;57.24;97645.31;1735389;81;21014;-73
2022/02/17 09:53:14;;;;;;;7.67;1.85;;;;;;;9.60;57.03;97635.09;1727202;81;21134;-73
2022/02/17 09:55:42;;;;;;;8.13;2.87;;;;;;;9.61;56.96;97662.48;1732991;81;21013;-73
2022/02/17 09:58:09;;;;;;;15.10;1.80;;;;;;;9.61;56.85;97662.48;1727457;81;21034;-72
2022/02/17 10:00:36;;;;;;;14.18;3.50;;;;;;;9.59;56.59;97645.43;1730231;81;21097;-72
2022/02/17 10:03:24;;;;;;;8.40;2.50;;;;;;;9.56;56.24;97641.91;1730724;81;21055;-73
2022/02/17 10:06:10;;;;;;;11.70;2.15;;;;;;;9.50;55.55;97692.02;1725758;81;21712;-72
2022/02/17 10:08:37;;;;;;;13.75;4.42;;;;;;;9.51;55.26;97679.02;1749598;80;21154;-71
2022/02/17 10:11:04;;;;;;;8.95;2.58;;;;;;;9.55;55.27;97684.17;1711552;81;21062;-71
2022/02/17 10:13:31;;;;;;;12.63;2.90;;;;;;;9.56;54.95;97688.98;1748656;80;21530;-71
2022/02/17 10:16:01;;;;;;;8.38;2.40;;;;;;;9.57;54.62;97690.61;1737386;80;21013;-70
2022/02/17 10:18:30;;;;;;;7.22;2.22;;;;;;;9.58;54.34;97693.53;1718792;81;21504;-70
2022/02/17 10:21:09;;;;;;;10.18;2.62;;;;;;;9.56;54.48;97706.27;1751677;80;21633;-71
2022/02/17 10:23:46;;;;;;;8.13;2.33;;;;;;;9.52;54.32;97702.74;1741827;80;21034;-70
2022/02/17 10:26:16;;;;;;;7.80;2.25;;;;;;;9.51;54.46;97693.13;1746574;80;21071;-71
2022/02/17 10:28:43;;;;;;;;;;;;;;;9.47;54.37;97691.15;1751945;80;21028;-70
2022/02/17 10:31:38;;;;;;;11.97;3.40;;;;;;;9.40;54.57;97699.23;1747016;80;21072;-73
2022/02/17 10:34:12;;;;;;;15.43;4.85;;;;;;;9.30;54.76;97722.92;1636133;84;21134;-71
2022/02/17 10:36:54;;;;;;;11.45;2.77;;;;;;;9.24;55.12;97723.02;1698143;82;21690;-73
2022/02/17 10:39:26;;;;;;;16.50;3.70;;;;;;;9.19;55.50;97726.35;1663534;84;21124;-72
2022/02/17 10:42:08;;;;;;;11.05;3.37;;;;;;;9.17;55.56;97736.42;1658037;83;21110;-72
2022/02/17 10:44:45;;;;;;;12.10;3.27;;;;;;;9.23;55.44;97730.19;1675085;82;21155;-73
2022/02/17 10:47:26;;;;;;;8.03;2.37;;;;;;;9.25;55.45;97718.82;1657275;83;21071;-72
2022/02/17 10:50:03;;;;;;;17.65;5.97;;;;;;;9.26;55.39;97751.00;1673063;82;21144;-73
2022/02/17 10:52:38;;;;;;;12.45;2.62;;;;;;;9.28;55.41;97754.27;1656023;83;21551;-73
2022/02/17 10:55:17;;;;;;;9.10;2.45;;;;;;;9.27;55.40;97744.66;1673480;83;21606;-73
2022/02/17 10:58:08;;;;;;;10.60;2.42;;;;;;;9.22;55.52;97749.05;1684644;83;21696;-70
2022/02/17 11:00:41;;;;;;;11.68;3.50;;;;;;;9.16;55.62;97745.42;1685873;83;21043;-70
2022/02/17 11:03:07;;;;;;;9.95;3.17;;;;;;;9.13;55.74;97758.36;1689958;83;21098;-70
2022/02/17 11:05:33;;;;;;;11.12;3.17;;;;;;;9.14;55.58;97746.18;1690054;84;21555;-70
2022/02/17 11:07:59;;;;;;;6.33;2.40;;;;;;;9.19;55.45;97750.28;1633644;84;21097;-70
2022/02/17 11:10:25;;;;;;;10.80;3.77;;;;;;;9.24;55.02;97786.33;1684147;84;21140;-70
2022/02/17 11:12:51;;;;;;;12.78;2.50;;;;;;;9.27;54.92;97765.93;1686869;85;21066;-70
2022/02/17 11:15:17;;;;;;;9.75;2.52;;;;;;;9.29;54.60;97775.81;1685978;85;21070;-71
2022/02/17 11:17:43;;;;;;;10.00;2.55;;;;;;;9.33;54.06;97778.31;1698889;84;21034;-70
2022/02/17 11:20:20;;;;;;;11.48;3.00;;;;;;;9.34;53.91;97801.22;1696938;84;20868;-70
2022/02/17 11:22:49;;;;;;;12.58;3.52;;;;;;;9.33;53.91;97775.66;1670265;85;21245;-70
2022/02/17 11:25:16;;;;;;;13.65;3.80;;;;;;;9.30;53.87;97804.03;1670692;85;21018;-70
2022/02/17 11:28:05;;;;;;;11.30;2.87;;;;;;;9.29;53.92;97819.69;1670364;85;21026;-70
2022/02/17 11:30:31;;;;;;;10.38;2.40;;;;;;;9.26;54.04;97816.67;1651612;86;21684;-70
2022/02/17 11:33:23;;;;;;;14.50;2.27;;;;;;;9.25;54.04;97830.51;1671012;85;21508;-70
2022/02/17 11:35:57;;;;;;;9.10;2.87;;;;;;;9.27;54.07;97840.39;1687549;84;21061;-70
2022/02/17 11:38:37;;;;;;;8.30;2.58;;;;;;;9.25;54.26;97837.16;1694814;84;21511;-70
2022/02/17 11:41:13;;;;;;;14.63;4.53;;;;;;;9.20;54.54;97833.53;1670011;84;21086;-70
2022/02/17 11:43:46;;;;;;;21.40;6.80;;;;;;;9.14;54.66;97871.66;1710462;83;21122;-70
2022/02/17 11:46:16;;;;;;;16.82;1.95;;;;;;;9.12;54.54;97858.57;1697686;84;21543;-71
2022/02/17 11:48:48;;;;;;;8.53;2.42;;;;;;;9.12;54.40;97876.36;1696221;84;21085;-71
2022/02/17 11:51:22;;;;;;;11.90;2.92;;;;;;;9.07;54.55;97879.71;1678851;83;21067;-71
2022/02/17 11:54:15;;;;;;;10.48;3.95;;;;;;;9.00;54.84;97894.92;1669356;85;21675;-71
2022/02/17 11:56:52;;;;;;;10.18;3.37;;;;;;;8.88;55.29;97894.02;1696585;84;21118;-70
2022/02/17 11:59:30;;;;;;;7.42;1.95;;;;;;;8.77;55.81;97913.34;1697937;84;21096;-70
2022/02/17 12:01:58;;;;;;;9.78;2.60;;;;;;;8.70;56.25;97909.93;1720040;81;21774;-70
2022/02/17 12:04:27;;;;;;;9.78;2.60;;;;;;;8.66;56.52;97929.48;1724279;81;21038;-70
2022/02/17 12:07:05;;;;;;;8.38;2.05;;;;;;;8.64;56.92;97929.41;1698105;84;21090;-70
2022/02/17 12:09:44;;;;;;;11.18;2.67;;;;;;;8.53;57.38;97937.06;1698273;84;21038;-71
2022/02/17 12:12:31;;;;;;;9.83;3.93;;;;;;;8.42;57.92;97939.09;1697888;84;21062;-71
2022/02/17 12:14:59;;;;;;;11.88;4.20;;;;;;;8.33;58.45;97950.20;1698059;84;21830;-70
2022/02/17 12:17:36;;;;;;;8.18;3.10;;;;;;;8.21;59.17;97938.09;1697781;84;21007;-71
2022/02/17 12:20:12;;;;;;;12.73;4.10;;;;;;;8.09;59.65;97962.38;1714292;83;21058;-71
2022/02/17 12:23:07;;;;;;;18.15;2.25;;;;;;;7.98;60.20;97967.04;1727026;83;21019;-70
2022/02/17 12:25:40;;;;;;;14.50;4.15;;;;;;;7.87;60.97;97972.51;1727256;83;21014;-70
2022/02/17 12:28:12;;;;;;;7.45;2.90;;;;;;;7.77;61.42;97985.92;1725985;83;21545;-70
2022/02/17 12:30:42;;;;;;;13.38;4.78;;;;;;;7.72;61.96;97989.71;1726980;83;21018;-70
2022/02/17 12:33:26;;;;;;;16.07;5.25;;;;;;;7.69;62.41;97983.50;1679374;84;21732;-70
2022/02/17 12:35:57;;;;;;;18.10;7.42;;;;;;;7.66;62.81;97990.56;1697852;84;21538;-70
2022/02/17 12:38:27;;;;;;;23.42;9.55;;;;;;;7.64;63.19;97991.27;1698074;84;21024;-70
2022/02/17 12:40:53;;;;;;;22.10;9.50;;;;;;;7.60;63.49;97992.73;1696164;84;21860;-70
2022/02/17 12:43:36;;;;;;;28.92;11.90;;;;;;;7.54;63.83;98008.45;1668461;86;21068;-70
2022/02/17 12:46:05;;;;;;;18.02;6.42;;;;;;;7.48;64.10;98027.85;1696407;84;21014;-70
2022/02/17 12:48:34;;;;;;;19.42;5.08;;;;;;;7.45;64.57;98022.16;1698110;84;21054;-70
2022/02/17 12:51:00;;;;;;;10.05;3.27;;;;;;;7.42;64.89;98043.25;1697896;84;21050;-70
2022/02/17 12:53:27;;;;;;;16.65;5.50;;;;;;;7.38;65.16;98040.73;1698002;84;21164;-70
2022/02/17 12:55:55;;;;;;;16.45;6.60;;;;;;;7.36;65.38;98022.05;1697601;84;21089;-70
2022/02/17 12:58:31;;;;;;;13.22;4.33;;;;;;;7.30;65.53;98037.47;1698091;84;21067;-70
2022/02/17 13:00:58;;;;;;;14.63;4.30;;;;;;;7.23;65.81;98064.50;1698085;84;21543;-70
2022/02/17 13:03:40;;;;;;;22.80;7.55;;;;;;;7.14;66.03;98069.22;1699008;83;21082;-70
2022/02/17 13:06:25;;;;;;;8.60;2.12;;;;;;;7.07;66.35;98071.05;1685194;84;21152;-70
2022/02/17 13:08:56;;;;;;;18.73;6.25;;;;;;;7.05;66.85;98066.45;1696100;84;21472;-69
2022/02/17 13:11:26;;;;;;;11.28;2.95;;;;;;;7.07;67.12;98067.59;1714482;81;21825;-70
2022/02/17 13:14:04;;;;;;;6.85;2.02;;;;;;;7.12;67.27;98073.06;1733445;81;21496;-70
2022/02/17 13:16:30;;;;;;;14.05;4.20;;;;;;;7.14;67.36;98082.97;1755348;81;21023;-70
2022/02/17 13:18:57;;;;;;;12.55;4.17;;;;;;;7.12;67.46;98073.89;1755352;81;21124;-70
2022/02/17 13:21:23;;;;;;;13.48;2.33;;;;;;;7.08;67.58;98077.14;1755298;81;21007;-70
2022/02/17 13:23:50;;;;;;;6.67;1.85;;;;;;;7.05;67.83;98111.50;1755471;81;21094;-70
2022/02/17 13:26:33;;;;;;;4.87;1.67;;;;;;;7.05;67.96;98103.55;1755451;81;21483;-70
2022/02/17 13:29:01;;;;;;;7.00;2.72;;;;;;;7.05;68.08;98123.42;1755102;81;21131;-70
2022/02/17 13:31:37;;;;;;;10.15;3.75;;;;;;;6.98;68.29;98112.83;1707711;81;21177;-72
2022/02/17 13:34:13;;;;;;;17.87;6.37;;;;;;;6.93;68.46;98098.56;1725317;83;21098;-70
2022/02/17 13:36:41;;;;;;;11.00;4.30;;;;;;;6.88;68.67;98124.33;1689249;84;21055;-70
2022/02/17 13:39:20;;;;;;;9.73;3.58;;;;;;;6.86;68.92;98121.59;1687713;83;21074;-70
2022/02/17 13:42:02;;;;;;;14.87;6.15;;;;;;;6.90;69.19;98118.81;1737291;82;21486;-70
2022/02/17 13:44:31;;;;;;;10.25;2.40;;;;;;;6.95;69.40;98130.96;1692617;82;21791;-70
2022/02/17 13:46:57;;;;;;;4.72;1.70;;;;;;;6.98;69.50;98156.55;1694885;82;21574;-70
2022/02/17 13:49:23;;;;;;;9.00;3.05;;;;;;;7.01;69.56;98147.37;1698322;84;21046;-70
2022/02/17 13:51:50;;;;;;;8.45;1.87;;;;;;;7.02;69.62;98179.48;1698258;84;21025;-70
2022/02/17 13:54:16;;;;;;;7.53;1.92;;;;;;;7.01;69.67;98177.34;1698427;83;21022;-69
2022/02/17 13:56:42;;;;;;;11.00;3.85;;;;;;;7.01;69.66;98185.28;1714283;83;21145;-70
2022/02/17 13:59:08;;;;;;;6.40;2.08;;;;;;;6.99;69.68;98203.73;1733533;82;21126;-70
2022/02/17 14:01:46;;;;;;;8.23;2.77;;;;;;;7.00;69.69;98180.20;1714295;83;21575;-70
2022/02/17 14:04:33;;;;;;;7.62;3.08;;;;;;;7.03;69.70;98210.27;1693224;84;21070;-70
2022/02/17 14:07:03;;;;;;;10.35;3.08;;;;;;;6.99;69.68;98208.53;1689455;84;21137;-70
2022/02/17 14:09:30;;;;;;;13.00;5.25;;;;;;;6.98;69.71;98225.44;1662008;86;21149;-70
2022/02/17 14:11:57;;;;;;;15.03;4.55;;;;;;;7.02;69.71;98245.73;1689555;84;21043;-70
2022/02/17 14:14:24;;;;;;;17.85;4.28;;;;;;;6.99;69.74;98266.00;1686050;83;21658;-70
2022/02/17 14:16:52;;;;;;;9.40;2.58;;;;;;;6.91;69.83;98270.15;1705443;83;21046;-71
2022/02/17 14:19:19;;;;;;;10.03;3.12;;;;;;;6.54;70.19;98286.80;1701161;83;21102;-70
2022/02/17 14:21:45;;;;;;;6.55;2.75;;;;;;;6.35;70.54;98332.52;1730355;82;21515;-71
2022/02/17 14:24:12;;;;;;;8.13;3.22;;;;;;;6.03;70.92;98325.97;1689233;82;21076;-71
2022/02/17 14:26:38;;;;;;;9.40;4.45;;;;;;;5.75;71.36;98352.05;1672131;84;21018;-71
2022/02/17 14:29:04;;;;;;;9.75;5.33;;;;;;;5.55;71.67;98366.41;1698127;84;21053;-72
2022/02/17 14:31:30;;;;;;;7.17;2.83;;;;;;;5.45;72.12;98367.22;1698395;84;21022;-72
2022/02/17 14:33:57;;;;;;;13.05;6.45;;;;;;;5.37;72.46;98376.57;1687951;84;21934;-71
2022/02/17 14:36:23;;;;;;;11.93;4.75;;;;;;;5.32;72.83;98390.34;1729099;82;21041;-71
2022/02/17 14:38:49;;;;;;;6.12;2.20;;;;;;;5.30;73.22;98400.28;1717132;83;21496;-71
2022/02/17 14:41:15;;;;;;;7.87;2.67;;;;;;;5.29;73.56;98399.95;1717437;83;21794;-70
2022/02/17 14:43:41;;;;;;;7.42;2.10;;;;;;;5.26;73.94;98428.08;1717696;83;21011;-71
2022/02/17 14:46:07;;;;;;;3.55;1.90;;;;;;;5.25;74.40;98425.61;1717666;83;21158;-70
2022/02/17 14:48:36;;;;;;;6.78;2.27;;;;;;;5.23;74.92;98432.91;1717702;83;20911;-70
2022/02/17 14:51:03;;;;;;;7.28;2.77;;;;;;;5.17;75.26;98468.00;1716667;83;21590;-71
2022/02/17 14:53:30;;;;;;;5.53;2.65;;;;;;;5.15;75.59;98456.28;1717748;83;21055;-70
2022/02/17 14:55:56;;;;;;;5.15;1.98;;;;;;;5.14;75.79;98455.95;1717659;83;21027;-70
2022/02/17 14:58:23;;;;;;;6.85;2.75;;;;;;;5.13;76.01;98473.33;1716983;83;21062;-70
2022/02/17 15:00:52;;;;;;;4.17;1.75;;;;;;;5.13;76.18;98476.80;1708071;84;20998;-70
2022/02/17 15:03:18;;;;;;;9.25;4.17;;;;;;;5.12;76.30;98483.08;1706320;83;21524;-70
2022/02/17 15:05:46;;;;;;;4.67;2.87;;;;;;;5.12;76.44;98491.00;1698551;83;21086;-70
2022/02/17 15:08:12;;;;;;;10.38;4.62;;;;;;;5.12;76.57;98498.10;1698164;83;21015;-69
2022/02/17 15:10:38;;;;;;;18.00;6.60;;;;;;;5.11;76.70;98506.52;1705393;83;21358;-69
2022/02/17 15:13:04;;;;;;;8.53;3.47;;;;;;;5.10;76.94;98500.94;1727871;83;21440;-70
2022/02/17 15:15:31;;;;;;;13.55;6.22;;;;;;;5.09;77.19;98509.86;1712962;82;21515;-69
2022/02/17 15:17:57;;;;;;;9.63;3.22;;;;;;;5.07;77.44;98523.73;1698663;84;21066;-70
2022/02/17 15:20:23;;;;;;;9.80;3.37;;;;;;;5.04;77.61;98530.70;1707846;83;21059;-70
2022/02/17 15:22:58;;;;;;;7.80;3.35;;;;;;;5.00;77.73;98534.70;1703195;83;21063;-70
2022/02/17 15:25:26;;;;;;;14.15;4.95;;;;;;;4.96;77.90;98537.41;1698992;83;21004;-70
2022/02/17 15:27:53;;;;;;;10.13;3.67;;;;;;;4.93;78.16;98544.34;1699455;83;21500;-70
2022/02/17 15:30:21;;;;;;;10.05;4.37;;;;;;;4.88;78.51;98548.87;1716112;83;21082;-70
2022/02/17 15:32:47;;;;;;;28.67;8.93;;;;;;;4.86;78.67;98552.66;1698772;84;21062;-70
2022/02/17 15:35:13;;;;;;;18.90;5.80;;;;;;;4.85;78.85;98548.41;1698342;84;21200;-70
2022/02/17 15:37:40;;;;;;;26.75;7.33;;;;;;;4.87;79.02;98566.20;1696258;84;21495;-70
2022/02/17 15:40:09;;;;;;;12.23;4.28;;;;;;;4.86;79.12;98571.15;1701548;83;21548;-72
2022/02/17 15:42:35;;;;;;;12.35;3.52;;;;;;;4.85;79.16;98581.41;1706198;83;21102;-70
2022/02/17 15:45:01;;;;;;;20.10;6.33;;;;;;;4.83;79.30;98576.79;1701297;83;21023;-70
2022/02/17 15:47:27;;;;;;;12.75;4.12;;;;;;;4.83;79.36;98592.63;1695959;84;21087;-71
2022/02/17 15:49:53;;;;;;;15.03;4.72;;;;;;;4.82;79.43;98607.66;1696534;83;21508;-70
2022/02/17 15:52:19;;;;;;;7.70;3.10;;;;;;;4.83;79.49;98596.59;1696062;83;21042;-70
2022/02/17 15:54:47;;;;;;;9.88;2.98;;;;;;;4.83;79.56;98596.59;1695897;84;21042;-70
2022/02/17 15:57:14;;;;;;;11.63;3.75;;;;;;;4.82;79.66;98599.73;1705821;83;21022;-70
2022/02/17 15:59:41;;;;;;;18.37;7.95;;;;;;;4.81;79.75;98613.13;1713629;83;21141;-71
2022/02/17 16:02:07;;;;;;;14.33;4.58;;;;;;;4.82;79.81;98613.46;1724978;82;21840;-70
2022/02/17 16:04:33;;;;;;;18.60;7.65;;;;;;;4.83;79.86;98619.87;1712321;82;21059;-71
2022/02/17 16:06:59;;;;;;;18.40;8.98;;;;;;;4.85;79.93;98614.42;1719591;83;21055;-70
2022/02/17 16:09:26;;;;;;;15.23;6.70;;;;;;;4.87;79.96;98626.94;1718364;83;21075;-70
2022/02/17 16:11:52;;;;;;;13.98;5.62;;;;;;;4.88;80.04;98623.30;1707234;83;21211;-70
2022/02/17 16:14:18;;;;;;;17.52;8.88;;;;;;;4.88;80.09;98632.55;1723317;83;21018;-70
2022/02/17 16:16:45;;;;;;;12.15;6.05;;;;;;;4.87;80.13;98625.12;1702630;83;21487;-70
2022/02/17 16:19:13;;;;;;;10.00;5.67;;;;;;;4.86;80.15;98626.61;1695942;84;21019;-70
2022/02/17 16:21:39;;;;;;;21.95;9.18;;;;;;;4.85;80.18;98636.87;1719998;83;21074;-70
2022/02/17 16:24:06;;;;;;;20.12;7.65;;;;;;;4.87;80.22;98641.46;1711173;83;21224;-70
2022/02/17 16:26:32;;;;;;;19.25;7.10;;;;;;;4.88;80.26;98640.47;1711069;83;21019;-70
2022/02/17 16:28:58;;;;;;;12.10;4.90;;;;;;;4.89;80.33;98646.09;1724921;82;21035;-70
2022/02/17 16:31:25;;;;;;;9.20;3.85;;;;;;;4.92;80.36;98647.88;1699566;82;21039;-70
2022/02/17 16:33:51;;;;;;;11.85;4.50;;;;;;;4.95;80.43;98650.66;1670167;84;21062;-70
2022/02/17 16:36:17;;;;;;;11.80;3.85;;;;;;;5.00;80.45;98660.17;1692905;84;21135;-70
2022/02/17 16:38:44;;;;;;;10.10;3.40;;;;;;;5.08;80.48;98671.17;1673580;84;21003;-71
2022/02/17 16:41:10;;;;;;;9.45;3.52;;;;;;;5.14;80.48;98672.61;1673660;85;21022;-70
2022/02/17 16:43:36;;;;;;;9.23;3.87;;;;;;;5.17;80.47;98688.13;1673337;84;21075;-73
2022/02/17 16:46:03;;;;;;;14.55;4.33;;;;;;;5.22;80.42;98690.22;1673058;85;21051;-70
2022/02/17 16:48:29;;;;;;;106.17;46.70;;;;;;;5.25;80.40;98688.04;1676090;84;21285;-70
2022/02/17 16:50:55;;;;;;;35.65;20.92;;;;;;;5.23;80.36;98687.41;1706715;82;21142;-70
2022/02/17 16:53:24;;;;;;;26.60;16.17;;;;;;;5.23;80.29;98695.34;1692010;83;21006;-70
2022/02/17 16:55:50;;;;;;;56.95;27.40;;;;;;;5.21;80.25;98690.72;1677958;84;21026;-70
2022/02/17 16:58:16;;;;;;;35.95;17.57;;;;;;;5.22;80.19;98698.97;1701943;83;21068;-70
2022/02/17 17:00:42;;;;;;;35.83;14.13;;;;;;;5.21;80.14;98710.53;1676926;84;21372;-70
2022/02/17 17:03:08;;;;;;;67.10;28.85;;;;;;;5.22;80.11;98726.72;1673825;85;21540;-70
2022/02/17 17:05:34;;;;;;;85.38;31.60;;;;;;;5.25;80.06;98717.11;1673560;85;21068;-70
2022/02/17 17:08:04;;;;;;;108.87;36.98;;;;;;;5.24;80.00;98720.74;1673739;85;21108;-70
2022/02/17 17:10:28;;;;;;;105.85;38.23;;;;;;;5.22;79.96;98725.40;1666847;85;21717;-70